Time;durP1;ratioP1;P1;durP2;ratioP2;P2;SDS_P1;SDS_P2;PMS_P1;PMS_P2;Temp;Humidity;BMP_temperature;BMP_pressure;BME280_temperature;BME280_humidity;BME280_pressure;Samples;Min_cycle;Max_cycle;Signal;HPM_P1;HPM_P2
2021/05/28 00:00:39;;;;;;;14.23;6.55;;;;;;;15.22;70.47;99975.91;1707898;84;21162;-81
2021/05/28 00:03:46;;;;;;;11.88;5.83;;;;;;;15.25;70.25;99972.20;1787533;80;21288;-81
2021/05/28 00:06:52;;;;;;;7.95;5.15;;;;;;;15.29;70.13;99968.47;1707976;84;21291;-81
2021/05/28 00:09:56;;;;;;;13.00;5.78;;;;;;;15.27;69.91;99965.09;1787814;80;21273;-81
2021/05/28 00:13:01;;;;;;;19.02;5.60;;;;;;;15.24;68.62;99966.89;1707962;83;21339;-81
2021/05/28 00:16:06;;;;;;;14.40;5.75;;;;;;;15.21;68.18;99957.70;1787716;80;21791;-81
2021/05/28 00:19:11;;;;;;;12.80;6.15;;;;;;;15.16;68.22;99956.96;1706496;83;21774;-81
2021/05/28 00:22:17;;;;;;;13.43;6.83;;;;;;;15.13;68.14;99953.78;1787762;80;21803;-81
2021/05/28 00:25:22;;;;;;;11.55;5.90;;;;;;;15.13;68.29;99955.16;1707641;82;21902;-81
2021/05/28 00:28:27;;;;;;;13.95;5.97;;;;;;;15.16;67.89;99956.13;1787789;80;21339;-81
2021/05/28 00:31:33;;;;;;;14.45;6.03;;;;;;;15.17;67.85;99960.56;1707935;84;21284;-81
2021/05/28 00:34:39;;;;;;;10.55;5.50;;;;;;;15.18;67.93;99957.58;1787718;80;21497;-81
2021/05/28 00:37:44;;;;;;;12.55;5.25;;;;;;;15.20;67.75;99950.50;1707955;83;21332;-81
2021/05/28 00:40:50;;;;;;;8.50;4.42;;;;;;;15.22;67.21;99949.20;1787798;80;21312;-81
2021/05/28 00:43:54;;;;;;;8.58;4.30;;;;;;;15.22;66.43;99945.61;1700098;84;21319;-81
2021/05/28 00:46:59;;;;;;;9.08;3.55;;;;;;;15.19;66.10;99943.27;1768914;80;21304;-81
2021/05/28 00:50:04;;;;;;;10.48;4.10;;;;;;;15.17;66.51;99937.14;1707892;84;21173;-81
2021/05/28 00:53:09;;;;;;;8.35;3.87;;;;;;;15.16;67.15;99937.68;1787708;80;21201;-81
2021/05/28 00:56:14;;;;;;;12.28;4.42;;;;;;;15.19;67.82;99938.61;1699506;84;21300;-81
2021/05/28 00:59:20;;;;;;;10.00;4.15;;;;;;;15.21;68.12;99928.77;1769172;80;21815;-81
2021/05/28 01:02:28;;;;;;;14.33;4.58;;;;;;;15.23;68.32;99937.12;1707945;83;21291;-81
2021/05/28 01:05:35;;;;;;;12.10;4.42;;;;;;;15.27;68.32;99927.89;1767764;80;21268;-81
2021/05/28 01:08:40;;;;;;;7.58;4.30;;;;;;;15.31;68.10;99925.03;1707818;83;21885;-81
2021/05/28 01:11:46;;;;;;;11.03;4.45;;;;;;;15.29;68.06;99925.76;1787622;80;21284;-81
2021/05/28 01:14:51;;;;;;;10.68;4.75;;;;;;;15.27;68.26;99927.36;1699544;84;21727;-81
2021/05/28 01:17:56;;;;;;;9.10;4.87;;;;;;;15.28;68.46;99925.45;1787601;80;21351;-81
2021/05/28 01:21:01;;;;;;;14.18;5.53;;;;;;;15.30;68.40;99920.05;1706557;83;21170;-81
2021/05/28 01:24:07;;;;;;;12.25;5.95;;;;;;;15.32;68.50;99919.83;1787894;80;21299;-81
2021/05/28 01:27:12;;;;;;;14.20;6.90;;;;;;;15.32;68.69;99922.58;1695808;84;21291;-81
2021/05/28 01:30:18;;;;;;;13.03;6.97;;;;;;;15.28;69.13;99912.52;1711746;84;21170;-81
2021/05/28 01:33:24;;;;;;;13.98;7.37;;;;;;;15.27;70.26;99916.87;1707435;84;21217;-81
2021/05/28 01:36:29;;;;;;;14.18;7.00;;;;;;;15.25;71.17;99908.00;1731667;83;21174;-81
2021/05/28 01:39:34;;;;;;;16.80;7.45;;;;;;;15.21;71.43;99907.57;1713218;83;21783;-81
2021/05/28 01:42:39;;;;;;;18.82;7.80;;;;;;;15.22;71.81;99912.55;1742837;82;21303;-81
2021/05/28 01:45:43;;;;;;;20.37;7.87;;;;;;;15.22;72.18;99907.04;1713440;84;21814;-81
2021/05/28 01:48:49;;;;;;;24.95;7.80;;;;;;;15.20;72.82;99906.42;1741989;82;21307;-81
2021/05/28 01:51:58;;;;;;;19.70;7.47;;;;;;;15.20;73.52;99899.53;1711946;83;21726;-81
2021/05/28 01:55:04;;;;;;;19.45;8.00;;;;;;;15.22;73.73;99900.15;1742714;82;21284;-81
2021/05/28 01:58:19;;;;;;;19.40;7.97;;;;;;;15.23;73.33;99902.67;1712722;84;21814;-82
2021/05/28 02:01:24;;;;;;;17.15;7.62;;;;;;;15.22;72.94;99902.91;1742732;82;21163;-81
2021/05/28 02:04:29;;;;;;;17.00;7.42;;;;;;;15.24;72.73;99901.64;1713204;84;21755;-81
2021/05/28 02:07:35;;;;;;;18.57;6.22;;;;;;;15.31;72.37;99905.20;1743005;82;22388;-81
2021/05/28 02:10:40;;;;;;;13.25;6.20;;;;;;;15.40;71.76;99907.73;1713321;84;21312;-81
2021/05/28 02:13:46;;;;;;;11.38;5.55;;;;;;;15.54;71.02;99901.95;1742790;82;21700;-81
2021/05/28 02:16:52;;;;;;;16.55;6.05;;;;;;;15.70;70.30;99897.86;1713228;84;21221;-81
2021/05/28 02:19:57;;;;;;;13.03;6.78;;;;;;;15.92;69.59;99898.39;1742947;82;21280;-81
2021/05/28 02:23:03;;;;;;;19.23;6.55;;;;;;;16.18;68.91;99893.22;1699453;84;21204;-81
2021/05/28 02:26:09;;;;;;;23.42;7.12;;;;;;;16.51;68.88;99891.58;1741293;82;21165;-81
2021/05/28 02:29:14;;;;;;;15.30;6.83;;;;;;;16.87;68.24;99895.55;1729146;83;21281;-81
2021/05/28 02:32:19;;;;;;;20.52;7.17;;;;;;;17.26;68.84;99889.29;1715877;83;21284;-82
2021/05/28 02:35:25;;;;;;;13.10;6.00;;;;;;;17.65;68.24;99893.50;1744796;82;21149;-82
2021/05/28 02:38:29;;;;;;;18.70;6.70;;;;;;;17.98;66.96;99892.24;1715272;83;21770;-82
2021/05/28 02:41:35;;;;;;;19.10;6.45;;;;;;;18.26;65.73;99891.61;1745292;82;21311;-82
2021/05/28 02:44:41;;;;;;;15.50;6.78;;;;;;;18.57;64.96;99884.37;1715698;83;21821;-82
2021/05/28 02:47:47;;;;;;;21.30;7.20;;;;;;;18.94;64.44;99889.72;1745172;82;21347;-82
2021/05/28 02:50:52;;;;;;;13.70;7.28;;;;;;;19.29;63.68;99893.00;1715827;83;21292;-82
2021/05/28 02:53:57;;;;;;;22.30;6.92;;;;;;;19.57;63.12;99887.54;1745172;82;21890;-82
2021/05/28 02:57:03;;;;;;;21.30;7.50;;;;;;;19.91;62.28;99887.69;1715915;83;21288;-82
2021/05/28 03:00:09;;;;;;;16.77;7.22;;;;;;;20.29;61.22;99894.50;1745071;82;21834;-82
2021/05/28 03:03:14;;;;;;;19.67;6.55;;;;;;;20.57;59.98;99892.25;1701803;83;21197;-82
2021/05/28 03:06:20;;;;;;;14.25;7.03;;;;;;;20.79;59.12;99893.70;1745190;82;21283;-82
2021/05/28 03:09:26;;;;;;;14.40;6.97;;;;;;;21.00;58.44;99895.72;1715745;83;21759;-82
2021/05/28 03:12:32;;;;;;;16.07;6.35;;;;;;;21.13;57.45;99896.75;1745071;82;21913;-82
2021/05/28 03:15:38;;;;;;;21.82;6.50;;;;;;;21.22;56.71;99887.95;1715460;83;21830;-82
2021/05/28 03:18:49;;;;;;;11.55;6.33;;;;;;;21.21;56.49;99886.27;1686898;85;21341;-82
2021/05/28 03:25:17;;;;;;;18.37;6.80;;;;;;;21.53;55.51;99887.30;1707421;83;21248;-82
2021/05/28 03:28:22;;;;;;;14.15;6.60;;;;;;;21.87;54.43;99882.98;1690089;83;21292;-82
2021/05/28 03:31:28;;;;;;;16.45;5.95;;;;;;;22.16;53.65;99881.68;1705651;84;21287;-82
2021/05/28 03:34:33;;;;;;;20.62;6.37;;;;;;;22.35;53.04;99881.30;1709810;84;21275;-82
2021/05/28 03:37:40;;;;;;;12.28;6.12;;;;;;;22.47;52.56;99884.75;1726713;83;21367;-82
2021/05/28 03:40:50;;;;;;;17.85;6.15;;;;;;;22.64;52.39;99884.63;1742863;82;21283;-82
2021/05/28 03:43:55;;;;;;;12.18;5.47;;;;;;;22.71;52.45;99893.59;1706808;83;21189;-82
2021/05/28 03:47:01;;;;;;;14.05;6.30;;;;;;;22.67;52.09;99891.88;1697623;84;21291;-82
2021/05/28 03:50:06;;;;;;;12.70;6.33;;;;;;;22.21;53.98;99887.86;1714674;83;21185;-82
2021/05/28 03:53:12;;;;;;;11.35;5.58;;;;;;;21.93;55.01;99887.52;1718685;83;21276;-82
2021/05/28 03:56:18;;;;;;;15.65;5.25;;;;;;;21.92;54.79;99890.86;1721790;83;21815;-82
2021/05/28 03:59:23;;;;;;;17.87;6.35;;;;;;;22.01;54.11;99890.38;1723536;83;21177;-82
2021/05/28 04:02:29;;;;;;;17.70;5.17;;;;;;;21.93;53.98;99886.13;1719436;83;21204;-82
2021/05/28 04:05:35;;;;;;;15.50;5.00;;;;;;;21.89;54.33;99886.36;1716868;83;21825;-82
2021/05/28 04:08:39;;;;;;;30.35;6.28;;;;;;;21.93;54.42;99880.01;1719532;83;21292;-81
2021/05/28 04:11:44;;;;;;;11.73;5.15;;;;;;;21.99;54.31;99877.28;1716688;83;21189;-82
2021/05/28 04:14:51;;;;;;;13.05;4.67;;;;;;;22.02;53.53;99879.52;1694670;83;21288;-82
2021/05/28 04:17:57;;;;;;;13.55;4.85;;;;;;;21.99;54.02;99879.51;1719849;83;21280;-82
2021/05/28 04:21:02;;;;;;;13.72;4.97;;;;;;;21.98;54.22;99876.99;1714940;83;21283;-82
2021/05/28 04:24:11;;;;;;;11.80;5.03;;;;;;;22.04;53.42;99877.33;1713876;83;21181;-82
2021/05/28 04:27:16;;;;;;;12.93;4.12;;;;;;;22.14;54.03;99871.89;1710164;83;21403;-81
2021/05/28 04:30:24;;;;;;;12.85;3.92;;;;;;;22.26;54.07;99870.35;1713297;83;21331;-82
2021/05/28 04:33:29;;;;;;;21.15;4.67;;;;;;;22.46;52.92;99871.92;1769081;80;22202;-82
2021/05/28 04:36:35;;;;;;;10.93;4.20;;;;;;;22.61;53.19;99883.20;1768818;80;21173;-82
2021/05/28 04:39:41;;;;;;;14.53;4.50;;;;;;;22.71;53.32;99876.86;1765804;80;21272;-82
2021/05/28 04:42:46;;;;;;;6.53;3.25;;;;;;;22.87;53.40;99880.63;1770569;80;21178;-82
2021/05/28 04:45:52;;;;;;;8.68;3.30;;;;;;;23.03;53.46;99877.41;1768745;80;21713;-82
2021/05/28 04:48:57;;;;;;;8.03;3.70;;;;;;;23.13;51.77;99877.47;1768927;80;21268;-81
2021/05/28 04:52:02;;;;;;;11.15;3.50;;;;;;;23.21;50.47;99886.17;1769610;80;21562;-81
2021/05/28 04:55:08;;;;;;;12.40;3.42;;;;;;;23.26;50.46;99885.92;1770810;80;21272;-82
2021/05/28 04:58:14;;;;;;;7.55;3.22;;;;;;;23.39;50.95;99889.63;1756231;80;21683;-82
2021/05/28 05:01:19;;;;;;;11.73;4.08;;;;;;;23.52;50.46;99883.53;1767065;79;21269;-82
2021/05/28 05:04:24;;;;;;;5.50;2.62;;;;;;;23.68;50.92;99883.93;1768584;80;21845;-81
2021/05/28 05:07:29;;;;;;;20.75;3.70;;;;;;;23.80;48.28;99878.66;1771151;80;21802;-82
2021/05/28 05:10:34;;;;;;;8.53;3.80;;;;;;;23.86;48.65;99888.19;1769849;80;21829;-82
2021/05/28 05:13:39;;;;;;;21.15;3.95;;;;;;;23.98;48.80;99885.14;1765887;79;21762;-81
2021/05/28 05:16:44;;;;;;;7.70;3.30;;;;;;;24.08;48.93;99882.92;1725258;82;21791;-82
2021/05/28 05:19:50;;;;;;;8.98;3.02;;;;;;;24.18;49.33;99879.63;1771268;80;21162;-82
2021/05/28 05:22:56;;;;;;;7.90;3.35;;;;;;;24.30;49.67;99878.51;1703200;82;21339;-82
2021/05/28 05:26:01;;;;;;;9.30;3.40;;;;;;;24.48;50.52;99869.62;1705598;82;21166;-82
2021/05/28 05:29:09;;;;;;;14.07;4.45;;;;;;;24.69;49.88;99864.84;1699530;82;21206;-82
2021/05/28 05:32:15;;;;;;;13.28;3.22;;;;;;;24.92;49.46;99871.83;1701795;82;21296;-82
2021/05/28 05:35:20;;;;;;;9.73;3.42;;;;;;;25.16;48.62;99867.33;1701579;84;21243;-82
2021/05/28 05:38:26;;;;;;;11.95;3.33;;;;;;;25.34;47.77;99869.25;1698312;82;22181;-82
2021/05/28 05:41:33;;;;;;;10.15;2.70;;;;;;;25.51;46.83;99866.97;1701436;84;21169;-82
2021/05/28 05:44:38;;;;;;;10.23;2.92;;;;;;;25.62;45.38;99868.59;1702485;83;21287;-82
2021/05/28 05:47:44;;;;;;;4.95;2.37;;;;;;;25.64;44.46;99870.56;1688811;84;21397;-82
2021/05/28 05:50:51;;;;;;;7.50;2.40;;;;;;;25.69;44.02;99880.91;1677909;84;21307;-81
2021/05/28 05:53:56;;;;;;;10.43;3.10;;;;;;;25.75;43.50;99871.34;1670986;84;21316;-82
2021/05/28 05:57:01;;;;;;;6.50;2.15;;;;;;;25.76;43.76;99875.01;1685082;84;21327;-82
2021/05/28 06:00:06;;;;;;;12.78;2.60;;;;;;;25.83;43.60;99869.38;1708989;82;22352;-82
2021/05/28 06:03:15;;;;;;;11.68;2.50;;;;;;;25.87;43.96;99875.22;1707116;83;21665;-82
2021/05/28 06:06:30;;;;;;;5.40;2.30;;;;;;;25.92;43.19;99865.39;1703663;82;21280;-83
2021/05/28 06:09:46;;;;;;;5.33;2.12;;;;;;;25.99;42.85;99867.33;1690946;82;21742;-83
2021/05/28 06:12:54;;;;;;;8.63;2.70;;;;;;;25.97;43.23;99867.62;1712764;82;21190;-82
2021/05/28 06:15:59;;;;;;;8.10;2.33;;;;;;;25.93;42.49;99860.08;1687505;82;21651;-83
2021/05/28 06:19:05;;;;;;;6.85;2.00;;;;;;;25.91;41.67;99867.92;1703213;82;21272;-82
2021/05/28 06:22:11;;;;;;;28.32;2.55;;;;;;;25.87;39.83;99860.65;1701194;82;21821;-82
2021/05/28 06:25:17;;;;;;;9.18;2.05;;;;;;;25.85;38.89;99861.52;1718434;82;21311;-83
2021/05/28 06:28:23;;;;;;;4.50;2.10;;;;;;;25.84;39.18;99856.21;1705008;82;21905;-83
2021/05/28 06:31:29;;;;;;;7.55;2.02;;;;;;;25.85;38.74;99848.91;1688921;81;21870;-82
2021/05/28 06:34:33;;;;;;;2.92;1.95;;;;;;;25.84;38.97;99851.44;1718446;81;21901;-82
2021/05/28 06:37:38;;;;;;;7.50;2.10;;;;;;;25.89;38.80;99851.41;1762979;79;21344;-82
2021/05/28 06:40:42;;;;;;;6.17;2.00;;;;;;;25.99;39.24;99849.11;1766677;79;21350;-82
2021/05/28 06:43:48;;;;;;;8.60;3.55;;;;;;;26.13;39.34;99846.50;1761050;80;21326;-82
2021/05/28 06:46:54;;;;;;;9.55;2.30;;;;;;;26.27;40.03;99842.48;1770169;79;21267;-82
2021/05/28 06:50:00;;;;;;;6.65;2.60;;;;;;;26.44;39.43;99849.39;1745724;79;21299;-83
2021/05/28 06:53:06;;;;;;;8.10;2.10;;;;;;;26.52;39.46;99845.11;1758175;80;21279;-82
2021/05/28 06:56:12;;;;;;;9.98;2.35;;;;;;;26.62;39.14;99846.98;1763652;79;21340;-82
2021/05/28 06:59:18;;;;;;;6.80;2.00;;;;;;;26.71;38.34;99846.06;1750470;80;21213;-82
2021/05/28 07:02:24;;;;;;;3.70;1.80;;;;;;;26.80;38.34;99851.05;1763502;79;21500;-82
2021/05/28 07:05:30;;;;;;;6.62;2.02;;;;;;;26.82;38.38;99847.36;1768929;79;21233;-82
2021/05/28 07:08:37;;;;;;;4.78;1.10;;;;;;;26.92;36.34;99844.48;1764492;79;21156;-83
2021/05/28 07:11:42;;;;;;;15.80;2.00;;;;;;;26.95;35.81;99843.30;1766914;80;21158;-82
2021/05/28 07:14:47;;;;;;;8.18;1.62;;;;;;;26.92;35.29;99834.09;1762894;79;21157;-82
2021/05/28 07:17:51;;;;;;;20.60;2.42;;;;;;;26.96;35.13;99837.98;1748774;80;21308;-82
2021/05/28 07:20:57;;;;;;;5.53;1.50;;;;;;;26.95;36.07;99831.24;1765353;79;21295;-82
2021/05/28 07:24:03;;;;;;;6.62;1.82;;;;;;;27.02;35.93;99827.53;1712268;82;21292;-82
2021/05/28 07:27:09;;;;;;;8.45;1.67;;;;;;;27.13;35.28;99823.50;1688950;82;21959;-82
2021/05/28 07:30:15;;;;;;;6.67;1.57;;;;;;;27.18;35.57;99826.25;1714187;82;21846;-82
2021/05/28 07:33:21;;;;;;;11.25;1.27;;;;;;;27.18;34.58;99824.02;1722110;82;21315;-82
2021/05/28 07:36:26;;;;;;;10.98;1.35;;;;;;;27.16;33.73;99822.92;1727091;80;21318;-82
2021/05/28 07:39:33;;;;;;;4.15;1.20;;;;;;;27.19;33.50;99825.11;1694059;83;21338;-82
2021/05/28 07:42:37;;;;;;;1.77;0.85;;;;;;;27.32;32.95;99826.37;1729529;80;21307;-82
2021/05/28 07:45:49;;;;;;;2.45;1.20;;;;;;;27.39;32.81;99813.39;1713491;82;21343;-82
2021/05/28 07:48:52;;;;;;;5.35;1.07;;;;;;;27.45;32.88;99812.19;1693594;83;21185;-82
2021/05/28 07:51:58;;;;;;;11.63;1.67;;;;;;;27.33;33.29;99803.34;1709654;83;21174;-82
2021/05/28 07:55:03;;;;;;;7.00;1.50;;;;;;;27.34;33.35;99797.45;1700117;83;21292;-82
2021/05/28 07:58:08;;;;;;;3.80;1.05;;;;;;;27.46;33.56;99806.83;1695435;82;21288;-82
2021/05/28 08:01:14;;;;;;;8.15;1.32;;;;;;;27.50;33.05;99798.08;1694642;82;21350;-82
2021/05/28 08:04:22;;;;;;;5.10;1.00;;;;;;;27.56;32.46;99798.27;1710028;83;21233;-82
2021/05/28 08:07:27;;;;;;;3.27;1.10;;;;;;;27.61;31.96;99794.55;1698604;82;21310;-82
2021/05/28 08:10:33;;;;;;;4.03;1.20;;;;;;;27.65;31.95;99792.24;1714145;83;21295;-82
2021/05/28 08:13:40;;;;;;;6.05;1.22;;;;;;;27.84;33.30;99797.08;1735979;81;21185;-82
2021/05/28 08:16:46;;;;;;;3.83;1.10;;;;;;;27.97;32.30;99798.56;1726607;80;21275;-83
2021/05/28 08:19:50;;;;;;;10.23;1.57;;;;;;;27.92;31.54;99801.45;1730834;82;21315;-82
2021/05/28 08:22:58;;;;;;;3.08;1.22;;;;;;;27.93;32.49;99784.84;1729207;80;21865;-82
2021/05/28 08:26:03;;;;;;;3.30;1.10;;;;;;;28.05;32.79;99790.02;1727574;82;21193;-82
2021/05/28 08:29:08;;;;;;;5.42;1.07;;;;;;;28.19;32.48;99784.47;1720143;82;21315;-82
2021/05/28 08:32:16;;;;;;;11.22;1.32;;;;;;;28.08;31.86;99789.97;1725658;82;21287;-82
2021/05/28 08:35:20;;;;;;;7.17;1.32;;;;;;;27.76;32.61;99781.18;1723516;81;21926;-82
2021/05/28 08:38:29;;;;;;;4.28;1.47;;;;;;;27.57;33.61;99774.68;1729710;82;22034;-82
2021/05/28 08:41:35;;;;;;;7.70;1.30;;;;;;;27.46;33.30;99777.34;1730003;80;21292;-82
2021/05/28 08:44:40;;;;;;;5.00;1.37;;;;;;;27.40;34.44;99775.74;1727529;82;21328;-82
2021/05/28 08:47:49;;;;;;;9.73;1.47;;;;;;;27.41;33.62;99771.80;1729007;82;21177;-82
2021/05/28 08:50:55;;;;;;;10.40;1.55;;;;;;;27.46;33.19;99773.13;1690253;84;21295;-82
2021/05/28 08:54:00;;;;;;;4.87;1.20;;;;;;;27.57;32.01;99769.61;1713166;83;21180;-82
2021/05/28 08:57:06;;;;;;;9.78;1.85;;;;;;;27.80;32.68;99763.69;1715214;82;21243;-82
2021/05/28 09:00:13;;;;;;;5.90;1.42;;;;;;;28.02;32.45;99764.75;1713396;82;21973;-82
2021/05/28 09:03:31;;;;;;;8.83;1.20;;;;;;;28.16;32.33;99763.98;1732026;82;21726;-82
2021/05/28 09:06:50;;;;;;;5.85;1.25;;;;;;;28.28;32.18;99762.95;1698777;83;21362;-82
2021/05/28 09:09:56;;;;;;;4.87;1.22;;;;;;;28.35;31.87;99757.77;1711337;82;21225;-82
2021/05/28 09:13:26;;;;;;;9.80;1.40;;;;;;;28.53;32.00;99749.03;1725857;80;21277;-83
2021/05/28 09:16:33;;;;;;;3.40;1.02;;;;;;;28.65;32.28;99754.14;1728538;81;21162;-82
2021/05/28 09:19:38;;;;;;;5.15;1.10;;;;;;;28.73;32.48;99749.22;1731055;80;21315;-82
2021/05/28 09:22:42;;;;;;;11.43;1.40;;;;;;;28.73;31.35;99755.67;1731939;82;21877;-82
2021/05/28 09:26:03;;;;;;;4.30;1.27;;;;;;;28.63;32.67;99751.65;1725473;82;21711;-81
2021/05/28 09:29:12;;;;;;;9.65;1.10;;;;;;;28.53;32.95;99751.84;1730048;82;21863;-82
2021/05/28 09:32:30;;;;;;;4.80;1.12;;;;;;;28.43;31.78;99757.08;1728809;82;21323;-82
2021/05/28 09:35:36;;;;;;;3.15;1.10;;;;;;;28.42;32.29;99760.18;1720217;82;21295;-82
2021/05/28 09:38:42;;;;;;;11.05;1.50;;;;;;;28.35;33.32;99755.54;1684073;83;21287;-82
2021/05/28 09:42:00;;;;;;;9.20;0.90;;;;;;;28.21;31.90;99753.48;1708309;83;21271;-82
2021/05/28 09:45:07;;;;;;;9.85;1.50;;;;;;;28.31;31.97;99744.61;1714412;83;21267;-82
2021/05/28 09:48:24;;;;;;;6.20;1.45;;;;;;;28.48;31.52;99739.28;1682116;83;21287;-82
2021/05/28 09:51:30;;;;;;;3.37;1.00;;;;;;;28.71;31.89;99743.91;1690322;84;21893;-83
2021/05/28 09:54:36;;;;;;;3.05;0.95;;;;;;;28.76;29.56;99736.77;1699742;82;21340;-82
2021/05/28 09:57:45;;;;;;;6.42;1.00;;;;;;;28.68;29.78;99734.67;1699852;82;21217;-82
2021/05/28 10:00:51;;;;;;;10.78;1.45;;;;;;;28.64;30.41;99735.59;1698207;84;21273;-82
2021/05/28 10:04:14;;;;;;;5.92;1.02;;;;;;;28.55;30.34;99739.70;1700534;82;21709;-82
2021/05/28 10:07:23;;;;;;;4.22;1.45;;;;;;;28.48;30.57;99734.48;1701607;82;21316;-82
2021/05/28 10:10:30;;;;;;;7.25;1.75;;;;;;;28.48;31.18;99726.05;1679718;84;21299;-83
2021/05/28 10:13:38;;;;;;;4.92;1.35;;;;;;;28.55;32.36;99722.81;1695323;83;21211;-82
2021/05/28 10:16:44;;;;;;;10.65;2.20;;;;;;;28.42;33.25;99720.27;1691103;84;21185;-83
2021/05/28 10:19:50;;;;;;;6.85;1.60;;;;;;;28.32;32.04;99720.95;1720257;82;21656;-83
2021/05/28 10:22:55;;;;;;;5.08;1.45;;;;;;;28.23;34.49;99717.47;1722203;82;21192;-83
2021/05/28 10:26:04;;;;;;;10.60;1.90;;;;;;;28.18;35.07;99713.34;1700924;82;21280;-82
2021/05/28 10:29:12;;;;;;;12.47;2.08;;;;;;;28.11;34.79;99714.30;1696801;82;21287;-82
2021/05/28 10:32:20;;;;;;;11.03;1.45;;;;;;;28.00;35.55;99721.24;1697958;84;21287;-82
2021/05/28 10:35:26;;;;;;;10.23;2.25;;;;;;;27.85;36.12;99721.46;1715543;82;21235;-82
2021/05/28 10:38:48;;;;;;;8.15;1.82;;;;;;;27.68;35.83;99713.56;1717723;82;21177;-82
2021/05/28 10:41:57;;;;;;;12.30;2.58;;;;;;;27.51;36.30;99713.50;1718956;82;21272;-82
2021/05/28 10:45:04;;;;;;;6.37;2.10;;;;;;;27.45;35.73;99708.28;1727848;82;21272;-82
2021/05/28 10:48:11;;;;;;;11.25;2.10;;;;;;;27.40;36.07;99713.97;1709892;82;21738;-82
2021/05/28 10:51:24;;;;;;;11.15;2.10;;;;;;;27.28;36.25;99715.80;1719024;82;21197;-82
2021/05/28 10:54:32;;;;;;;7.95;2.00;;;;;;;27.20;35.85;99715.09;1732466;82;21377;-82
2021/05/28 10:57:40;;;;;;;11.38;2.45;;;;;;;27.13;35.03;99718.81;1702264;84;21157;-82
2021/05/28 11:00:45;;;;;;;3.15;1.30;;;;;;;27.08;35.92;99711.30;1715563;83;21666;-82
2021/05/28 11:03:54;;;;;;;5.55;1.70;;;;;;;27.07;35.03;99705.95;1714260;83;21897;-82
2021/05/28 11:07:11;;;;;;;5.33;1.57;;;;;;;27.12;35.36;99709.56;1708727;82;21882;-83
2021/05/28 11:10:29;;;;;;;3.30;1.40;;;;;;;27.21;35.20;99696.53;1705757;83;21181;-82
2021/05/28 11:13:35;;;;;;;5.87;1.25;;;;;;;27.28;34.90;99696.72;1719262;83;21283;-82
2021/05/28 11:17:02;;;;;;;7.17;1.60;;;;;;;27.45;35.55;99698.45;1709132;83;21280;-82
2021/05/28 11:20:13;;;;;;;12.47;2.00;;;;;;;27.46;34.76;99682.69;1711155;83;21200;-83
2021/05/28 11:23:27;;;;;;;7.97;2.08;;;;;;;27.46;36.38;99685.50;1702685;84;21741;-83
2021/05/28 11:26:34;;;;;;;8.15;2.17;;;;;;;27.55;37.36;99692.67;1690816;84;21173;-82
2021/05/28 11:29:40;;;;;;;12.53;2.40;;;;;;;27.50;38.06;99685.73;1712763;82;21291;-82
2021/05/28 11:32:54;;;;;;;11.65;2.20;;;;;;;27.52;37.27;99682.04;1721398;82;21865;-82
2021/05/28 11:36:01;;;;;;;10.70;2.05;;;;;;;27.53;37.17;99689.35;1714782;82;21668;-83
2021/05/28 11:39:09;;;;;;;6.58;2.00;;;;;;;27.39;37.58;99685.62;1728600;82;21296;-83
2021/05/28 11:42:15;;;;;;;4.03;1.70;;;;;;;27.30;37.07;99680.42;1711306;82;21346;-82
2021/05/28 11:45:22;;;;;;;4.20;1.52;;;;;;;27.31;37.11;99674.50;1690448;84;21863;-82
2021/05/28 11:48:32;;;;;;;65.28;6.75;;;;;;;27.24;37.21;99674.88;1673549;84;22166;-82
2021/05/28 11:51:38;;;;;;;11.35;1.87;;;;;;;27.07;38.13;99669.48;1664294;84;21186;-82
2021/05/28 11:54:44;;;;;;;10.98;1.90;;;;;;;26.92;38.28;99675.55;1669520;84;21339;-82
2021/05/28 11:57:49;;;;;;;4.25;1.57;;;;;;;26.80;38.66;99668.12;1666339;86;21324;-82
2021/05/28 12:00:54;;;;;;;18.17;1.95;;;;;;;26.57;39.48;99666.98;1633727;86;21839;-83
2021/05/28 12:03:59;;;;;;;19.30;1.80;;;;;;;26.49;40.11;99664.28;1670520;85;21351;-82
2021/05/28 12:07:04;;;;;;;10.70;1.82;;;;;;;26.70;39.50;99669.08;1665212;85;22152;-82
2021/05/28 12:10:16;;;;;;;10.30;1.25;;;;;;;26.92;37.87;99669.11;1663268;85;21316;-82
2021/05/28 12:13:26;;;;;;;8.30;1.30;;;;;;;26.97;37.61;99674.66;1661457;85;21307;-82
2021/05/28 12:16:31;;;;;;;3.35;1.25;;;;;;;26.95;37.65;99665.69;1672416;85;21319;-82
2021/05/28 12:19:36;;;;;;;5.80;1.27;;;;;;;26.77;39.12;99661.69;1659357;84;21162;-82
2021/05/28 12:22:41;;;;;;;20.60;1.75;;;;;;;26.70;39.17;99673.28;1652640;85;21321;-82
2021/05/28 12:25:53;;;;;;;5.00;1.35;;;;;;;26.59;39.12;99663.33;1679132;84;21214;-82
2021/05/28 12:29:08;;;;;;;7.92;1.70;;;;;;;26.58;40.17;99657.42;1669029;84;21347;-82
2021/05/28 12:32:14;;;;;;;7.17;1.15;;;;;;;26.59;40.19;99658.30;1667235;84;21758;-82
2021/05/28 12:35:19;;;;;;;6.35;1.20;;;;;;;26.51;39.71;99659.77;1672839;84;21619;-82
2021/05/28 12:38:25;;;;;;;7.50;1.40;;;;;;;26.42;39.54;99660.11;1701006;82;21739;-82
2021/05/28 12:41:32;;;;;;;9.28;2.25;;;;;;;26.32;40.55;99662.46;1766682;80;21310;-82
2021/05/28 12:44:37;;;;;;;5.87;1.17;;;;;;;26.37;39.92;99662.98;1723807;82;21257;-82
2021/05/28 12:47:54;;;;;;;5.20;1.30;;;;;;;26.37;39.53;99658.20;1699322;84;21315;-82
2021/05/28 12:50:59;;;;;;;5.17;1.40;;;;;;;26.35;39.48;99654.01;1767765;80;21264;-82
2021/05/28 12:54:05;;;;;;;14.10;1.85;;;;;;;26.41;39.67;99647.23;1767166;80;21177;-82
2021/05/28 12:57:12;;;;;;;7.03;1.52;;;;;;;26.42;39.69;99641.89;1771715;80;21284;-82
2021/05/28 13:00:17;;;;;;;4.50;1.50;;;;;;;26.42;39.93;99644.70;1769574;80;21829;-82
2021/05/28 13:03:25;;;;;;;7.03;1.02;;;;;;;26.47;39.90;99641.30;1758419;80;21196;-82
2021/05/28 13:06:44;;;;;;;3.25;1.10;;;;;;;26.59;39.25;99642.87;1768230;80;21308;-82
2021/05/28 13:09:50;;;;;;;9.10;1.47;;;;;;;26.65;38.90;99639.69;1768324;80;21283;-82
2021/05/28 13:12:55;;;;;;;12.45;1.32;;;;;;;26.58;39.16;99642.00;1768307;80;21284;-82
2021/05/28 13:16:00;;;;;;;7.45;1.37;;;;;;;26.58;39.69;99635.56;1762995;80;21206;-82
2021/05/28 13:19:16;;;;;;;8.85;1.37;;;;;;;26.62;39.25;99637.47;1761132;80;21296;-82
2021/05/28 13:22:24;;;;;;;3.08;0.98;;;;;;;26.59;39.77;99628.27;1765378;80;21270;-82
2021/05/28 13:25:44;;;;;;;7.55;1.30;;;;;;;26.57;40.86;99631.09;1768113;79;21822;-82
2021/05/28 13:28:50;;;;;;;5.40;1.47;;;;;;;26.49;40.77;99635.41;1771182;80;21244;-82
2021/05/28 13:31:59;;;;;;;12.50;1.70;;;;;;;26.35;40.89;99638.59;1772081;80;21169;-82
2021/05/28 13:35:04;;;;;;;11.10;1.50;;;;;;;26.29;40.77;99635.58;1751876;80;21304;-82
2021/05/28 13:38:10;;;;;;;7.37;1.55;;;;;;;26.23;42.02;99635.64;1724505;82;21315;-82
2021/05/28 13:41:19;;;;;;;4.47;1.37;;;;;;;26.21;41.88;99635.11;1769285;79;21306;-82
2021/05/28 13:44:23;;;;;;;6.05;1.60;;;;;;;26.18;42.40;99632.89;1767453;79;21320;-82
2021/05/28 13:47:28;;;;;;;4.67;2.12;;;;;;;26.15;43.03;99632.07;1767043;79;21333;-82
2021/05/28 13:50:36;;;;;;;10.48;1.90;;;;;;;26.18;44.04;99628.69;1761563;79;21210;-82
2021/05/28 13:53:42;;;;;;;14.80;1.98;;;;;;;26.15;43.91;99620.86;1758922;79;21880;-82
2021/05/28 13:56:48;;;;;;;5.40;1.65;;;;;;;26.10;43.66;99622.31;1754286;79;21313;-82
2021/05/28 13:59:56;;;;;;;5.90;1.32;;;;;;;26.06;43.65;99627.41;1774695;79;21176;-82
2021/05/28 14:03:05;;;;;;;6.85;2.65;;;;;;;26.06;42.46;99630.20;1722198;81;21385;-82
2021/05/28 14:06:11;;;;;;;7.92;1.50;;;;;;;25.95;41.43;99622.47;1780163;80;21775;-82
2021/05/28 14:09:17;;;;;;;4.62;1.57;;;;;;;25.84;42.55;99617.54;1704744;81;21877;-82
2021/05/28 14:12:24;;;;;;;4.67;1.30;;;;;;;25.76;42.93;99613.96;1735117;82;21335;-82
2021/05/28 14:15:31;;;;;;;7.50;1.72;;;;;;;25.63;43.62;99609.00;1750165;80;21280;-82
2021/05/28 14:18:37;;;;;;;9.50;1.72;;;;;;;25.52;43.75;99606.84;1754950;79;21619;-82
2021/05/28 14:21:44;;;;;;;5.22;1.50;;;;;;;25.41;44.28;99600.50;1759590;80;21139;-82
2021/05/28 14:24:50;;;;;;;3.35;1.20;;;;;;;25.40;45.03;99596.58;1786822;79;21319;-82
2021/05/28 14:27:55;;;;;;;7.12;1.45;;;;;;;25.35;43.67;99596.05;1770541;80;21686;-82
2021/05/28 14:31:02;;;;;;;4.10;1.15;;;;;;;25.31;44.16;99594.12;1742751;81;21140;-82
2021/05/28 14:34:07;;;;;;;12.47;2.85;;;;;;;25.26;44.51;99584.37;1747663;80;21256;-82
2021/05/28 14:37:12;;;;;;;4.55;1.47;;;;;;;25.27;45.00;99583.27;1784575;80;21201;-82